Akron, Ohio
Current Conditions -  °F | °C
As of 5:54 AM on Sunday 21 Dec 2014 (Local Time) from KAKR Reporting Station
Overcast Overcast  
Wind Chill: -2°   Ceiling: 2800
Heat Index: -2°   Visibility: 7mi
Dew Point: -6°   Wind: 0mph
Humidity: 72%   Direction: NA
Pressure: 30.29"   Gusts: NA
Location:  41.08°N, 81.51°W
Report Text: KAKR 211054Z AUTO 00000KT 7SM OVC028 M02/M06 A3029 RMK AO2 SLP267 T10171061 $
Loading
Personal Weather Stations






























Interactive Weather Map New forecast layout! Learn more

10-Day Weather Forecast

Advertisements
Track Severe Weather on mobile